Ergebnisliste vom: 08.05.2005 - Kamenzer BlŁtenlauf - 15 km

weitere Ergebnisse >>

Platz Plm Plw Stnr. Name,Vorname Verein GJ AK Akm Akw Endzeit RŁckst.
1 1   4072 K√∂nig, Thomas Ski- und Laufverein 1991 65 M40-44 1   0:54:07 0:00:00
2 2   4048 Harzbecker, Ralf Lauftreff Lausitz 57 M45-49 1   0:54:25 0:00:18
3 3   4031 Robel, Matthias SV K√∂nigswarda 63 M40-44 2   0:55:08 0:01:01
4 4   4097 Thomschke, Markus OSSV Kamenz 84 M20-29 1   0:55:43 0:01:36
5 5   4057 Schulze, Marc TSV Dtresden 84 M20-29 2   0:57:12 0:03:05
6 6   4071 Hennig, Mirko Ski- und Laufverein 1990 73 M30-34 1   0:57:34 0:03:27
7 7   9988 Biastoch, Lutz SG Grossr√∂hrsdorf 66 M35-39 1   0:57:42 0:03:35
8 8   4060 M√ľller, Dietmar Leichtath. Pirna 56 M45-49 2   0:58:19 0:04:12
9 9   9959 Lehmann, Heiko Bautzen 65 M40-44 3   0:59:15 0:05:08
10 10   4085 Jancker, Hans-Dieter SV Elbland Coswig-Mei√üen 52 M50-54 1   1:00:26 0:06:19
11 11   9998 F√ľssel, Thomas SV Turbine Hohenwarte 71 M30-34 2   1:00:35 0:06:28
12 12   4040 Spitzner, Thomas SV Sch√∂nheide 77 M20-29 3   1:00:37 0:06:30
13 13   4030 Kubitz, Frank SV K√∂nigswarda 61 M40-44 4   1:00:41 0:06:34
14 14   4088 M√ľller, Giso OSSV Kamenz 77 M20-29 4   1:00:50 0:06:43
15 15   4038 Riedmann, Johann Knappensee-S√§rchen 69 M35-39 2   1:01:58 0:07:51
16 16   4053 Dobritz, Andreas LV Limbach 59 M45-49 3   1:02:21 0:08:14
17 17   9961 Wilde, Andreas TV Valtenberg 58 M45-49 4   1:03:26 0:09:19
18 18   4095 Thomschke, Patrick OSSV Kamenz 76 M20-29 5   1:03:47 0:09:40
19 19   4064 Walter, Mike Oberl. Biathlon-Verein 73 M30-34 3   1:04:17 0:10:10
20 20   4051 G√ľttler, Hans-Joachim LV Limbach 63 M40-44 5   1:04:24 0:10:17
21 21   4042 G√ľnther, Marcus Zw√∂nitzer HSV 1928 79 M20-29 6   1:04:28 0:10:21
22 22   4035 Retschke, Andreas HLG Gersdorf 87 MJug A 1   1:04:31 0:10:24
23 23   4033 Reinhard, Mirko SG Oberlichtenau 81 M20-29 7   1:04:32 0:10:25
24 24   4096 Thomschke, Christian OSSV Kamenz 77 M20-29 8   1:04:34 0:10:27
25 25   4045 Wewlich, Stefen Orentierungslaufteam Wehrsdorf 71 M30-34 4   1:05:47 0:11:40
26 26   9996 Ruhland, Tino LRV Hohenbocka 73 M30-34 5   1:06:07 0:12:00
27 27   9962 Schneider, J√∂rg LV Limbach 2000 58 M45-49 5   1:06:31 0:12:24
28 28   4054 Wendt, Uwe Kamenzerspistenst√ľrmer 60 M45-49 6   1:07:33 0:13:26
29 29   4050 Wohlgemuth, Dietmar BSG der KSK L√∂bau 55 M50-54 2   1:08:01 0:13:54
30 30   4081 M√ľller, Raimund SV Nauendorf 57 M45-49 7   1:08:44 0:14:37
31 31   4021 Gr√§fe, Klaus LG Deutschbaselitz 56 M45-49 8   1:08:55 0:14:48
32 32   9963 Kaube, Frank LC Schwarzbach Berlin 71 M30-34 6   1:09:01 0:14:54
32 32   9964 B√∂me, Steffen LC Schwarzbach Berlin 71 M30-34 6   1:09:01 0:14:54
34 34   4049 Tamke, Martin   90 Volkslauf 1   1:09:03 0:14:56
35 35   4068 Thieme, Thomas SC DHfK Leipzig 56 M45-49 9   1:09:06 0:14:59
36 36   4093 Wit, Sebastian O√üling Skaska 89 Volkslauf 2   1:09:41 0:15:34
37 37   9993 Pappritz, Sven SG Ebersbach 79 M20-29 9   1:09:44 0:15:37
38 38   4039 Unruh, Rene   67 M35-39 3   1:09:55 0:15:48
39 39   4016 Dutzmann, Steffen Autohaus Elitzsch 64 M40-44 6   1:10:00 0:15:53
40 40   4080 Wiesner, Ralf OSSV Kamenz 71 M30-34 8   1:10:12 0:16:05
41 41   4067 Wenzel, Steffen SV Einheit Hoy. 62 M40-44 7   1:10:30 0:16:23
42 42   4024 Giebler, Andre LG TUS Weinb√∂hla 60 M45-49 10   1:10:44 0:16:37
43 43   4063 K√ľttner, Jens Sportfr. Ottendorf-Okrilla 72 M30-34 9   1:10:45 0:16:38
44 44   9955 Krause, Frank SV Lomnitz 55 M50-54 3   1:10:46 0:16:39
45 45   4077 Schr√∂der, Jens   65 M40-44 8   1:10:53 0:16:46
46 46   4034 Angermann, Jens RC 1898 Radeberg 63 M40-44 9   1:11:03 0:16:56
47 47   4069 Hilger, Rainer OSC L√∂bau 45 M60-64 1   1:11:07 0:17:00
48 48   4062 Becher, Rocco   79 M20-29 10   1:11:18 0:17:11
49 49   4029 Kubitz, Friedbert Handball Eibau 55 M50-54 4   1:11:25 0:17:18
50 50   9953 Sethmacher, Mike Meerwasseraquarianer 72 M30-34 10   1:12:00 0:17:53
51 51   9942 H√§usler, Heiko LFV Oberholz 72 M30-34 11   1:12:05 0:17:58
52 52   9989 Conrad, Julian SV Koweg G√∂rlitz 87 MJug A 2   1:12:11 0:18:04
53 53   4059 Knobloch, Veit Bautzen 62 M40-44 10   1:12:13 0:18:06
54 54   4065 Stolze, Peter   43 M60-64 2   1:13:04 0:18:57
55 55   9960 Schulze, Ralph LRV Hohenbocka 61 M40-44 11   1:13:09 0:19:02
56 56   4079 Duve, Jens L√∂wen Power Team 81 M20-29 11   1:13:16 0:19:09
57 57   4061 Strosny, Wolfgang BLV Rot-Wei√ü 90 51 M50-54 5   1:13:17 0:19:10
58 58   4100 Winkler, Gerd K√∂nigswarthaer SV 1990 62 M40-44 12   1:13:32 0:19:25
59 59   4011 Schippel, Dirk   69 M35-39 4   1:13:36 0:19:29
60 60   4098 Pfennig, Enrico LG Gro√üthiemig 71 M30-34 12   1:13:53 0:19:46
61 61   4044 Roch, Ingolf Schwedenstein Klinik 61 M40-44 13   1:13:55 0:19:48
62 62   4078 Herzog, Uwe L√∂wen Power Team 62 M40-44 14   1:13:56 0:19:49
63 63   4087 R√∂hr, Egbert   49 M55-59 1   1:14:04 0:19:57
64 64   9997 Mauksch, Thomas Kamenz 76 M20-29 12   1:14:09 0:20:02
65 65   4073 Munkelt, Friedemann SC DHfK Leipzig 45 M60-64 3   1:14:29 0:20:22
66 66   9995 Klotzsche, Gaston Fitnes Center Goldener L√∂we 80 M20-29 13   1:14:30 0:20:23
67 67   9954 Paul, Tilo Seifhennersdorf 72 M30-34 13   1:15:07 0:21:00
68 68   4005 Franke, Bodo   65 M40-44 15   1:15:14 0:21:07
69 69   4075 Anhalt, Ralf TSV Dresden 75 M30-34 14   1:15:24 0:21:17
70 70   9956 Wygoda, Andreas N√ľnchritz 57 M45-49 11   1:15:27 0:21:20
71 71   9957 Ollmer, Andreas Leipzig 59 M45-49 12   1:15:36 0:21:29
72 72   9958 Keilwagen, Ren√© NLLB Cottbus 72 M30-34 15   1:15:51 0:21:44
73 73   4020 Reza, Alimohammadi LG Deutschbaselitz 74 M30-34 16   1:16:32 0:22:25
73 73   4070 Eisold, Andreas   81 M20-29 14   1:16:32 0:22:25
75 75   4001 Trixa, Marcus HLG Gersdorf 85 M20-29 15   1:16:50 0:22:43
75 75   4003 Haase, Steffen HLG Gersdorf 65 M40-44 16   1:16:50 0:22:43
77 77   4047 K√∂hler, Lutz LFV Oberholz 61 M40-44 17   1:16:56 0:22:49
78 78   4058 Malcher, Stefan SV Rosbach ( Hessen) 65 M40-44 18   1:17:14 0:23:07
79 79   4019 Bremer, Bernd ASC G/W Finsterwalde 43 M60-64 4   1:17:22 0:23:15
80 80   4046 Rohloff, Berno Vfl Dresden-B√ľhlau 51 M50-54 6   1:17:42 0:23:35
81 81   4091 Schneider, Uwe GMRLV 63 M40-44 19   1:18:16 0:24:09
82 82   4013 Sch√∂bel, Sandro   72 M30-34 17   1:18:33 0:24:26
82 82   4014 Smektala, Thomas Haselbachtal 67 M35-39 5   1:18:33 0:24:26
84 84   4036 Tischer, Lothar Aufbau Deutschbaselitz 59 M45-49 13   1:19:02 0:24:55
85 85   4099 Gr√ľndlich, Karlheinz LG Gro√üthiemig 53 M50-54 7   1:19:17 0:25:10
86 86   4004 Kothe, Christoph Triathlonver. Valtenberg 72 M30-34 18   1:19:37 0:25:30
87 87   4052 Tauscher, Ralf LV Limbach 64 M40-44 20   1:19:57 0:25:50
88 88   4094 Berger, Thomas O√üling Skaska 89 Volkslauf 3   1:20:02 0:25:55
89 89   9994 R√∂schke, Sebastian Panschwitz-Kuckau 79 M20-29 16   1:20:03 0:25:56
90 90   4056 Hartwig, Dr. Wolf-Henning SG Dresdner Bank 43 M60-64 5   1:20:33 0:26:26
91 91   4008 Kunath, Christian Oberlichtenau 53 M50-54 8   1:21:52 0:27:45
92 92   4089 Mauksch, Thomas Kamenz 76 M20-29 17   1:21:55 0:27:48
93 93   4083 K√∂ller, Jens   62 M40-44 21   1:21:56 0:27:49
94 94   4066 Mieth, Lothar SV Einheit Hoy. 39 Volkslauf 4   1:21:59 0:27:52
95 95   4007 Lukas, Frank LG Deutschbaselitz 61 M40-44 22   1:23:20 0:29:13
96 96   4023 Hiekmann, Thomas Dresden 78 M20-29 18   1:23:21 0:29:14
97 97   4018 Diemer, Hauke SSC Niederlausitz e. V. 65 M40-44 23   1:24:15 0:30:08
98 98   4028 Seidler, Stefan   77 M20-29 19   1:25:39 0:31:32
99 99   4082 Glocke, Falk   63 M40-44 24   1:27:54 0:33:47
100 100   4055 Estel, Andreas   74 M30-34 19   1:33:00 0:38:53
101 101   9952 Herder, Wolfgang Rennsteiglaufverein 50 M55-59 2   1:33:50 0:39:43
102 102   4012 Rose, Mario PONED International 66 M35-39 6   1:33:58 0:39:51
103 103   4041 Melzer, Andreas Lauftreff Lausitz 66 M35-39 7   1:36:05 0:41:58
104 104   4101 von dem Fange, R√ľdiger ESV Lok D√∂beln 41 M60-64 6   1:37:30 0:43:23
105 105   4022 Fasold, Daniel   77 M20-29 20   1:37:59 0:43:52
106 106   4043 Schierz, Manfred LSV Landeskrone G√∂rlitz 41 M60-64 7   1:38:37 0:44:30
107 107   9951 Wenzlau, Thomas MFV Clau√ünitz 51 M50-54 9   1:43:41 0:49:34
(c) 1990-2020 Blue Wonder Sport Promotion - Andreas Burow - Zeitnahme & Auswertung - www.Triathlon-Service.de